createdAt,value
2018-12-22T00:02:30.661Z,93.83
2018-12-22T00:05:01.404Z,93.79
2018-12-22T00:07:32.008Z,93.17
2018-12-22T00:10:02.799Z,92.88
2018-12-22T00:12:33.546Z,92.15
2018-12-22T00:15:04.076Z,92.47
2018-12-22T00:17:34.963Z,91.92
2018-12-22T00:20:06.535Z,92.09
2018-12-22T00:22:37.162Z,91.86
2018-12-22T00:25:08.254Z,92.05
2018-12-22T00:27:38.925Z,91.99
2018-12-22T00:30:10.310Z,92.42
2018-12-22T00:32:40.603Z,92.58
2018-12-22T00:35:10.923Z,92.98
2018-12-22T00:37:41.467Z,92.63
2018-12-22T00:40:11.794Z,92.67
2018-12-22T00:42:42.183Z,93.19
2018-12-22T00:45:12.539Z,93.30
2018-12-22T00:47:43.263Z,93.56
2018-12-22T00:50:13.530Z,93.55
2018-12-22T00:52:44.103Z,93.46
2018-12-22T00:55:14.783Z,93.45
2018-12-22T00:57:45.584Z,94.00
2018-12-22T01:00:16.157Z,93.78
2018-12-22T01:02:46.777Z,94.26
2018-12-22T01:05:17.717Z,94.50
2018-12-22T01:07:48.343Z,94.20
2018-12-22T01:10:19.020Z,94.24
2018-12-22T01:12:49.589Z,94.08
2018-12-22T01:15:19.989Z,93.75
2018-12-22T01:17:50.669Z,93.63
2018-12-22T01:20:21.306Z,93.54
2018-12-22T01:22:51.890Z,94.14
2018-12-22T01:25:22.663Z,93.58
2018-12-22T01:27:53.578Z,93.70
2018-12-22T01:30:24.367Z,93.86
2018-12-22T01:32:55.141Z,93.92
2018-12-22T01:35:25.789Z,94.15
2018-12-22T01:37:56.263Z,93.76
2018-12-22T01:40:27.077Z,93.59
2018-12-22T01:42:57.646Z,93.64
2018-12-22T01:45:28.236Z,93.56
2018-12-22T01:47:58.761Z,94.01
2018-12-22T01:50:29.358Z,93.64
2018-12-22T01:53:00.180Z,93.93
2018-12-22T01:55:31.046Z,94.27
2018-12-22T01:58:01.756Z,94.53
2018-12-22T02:00:32.586Z,94.89
2018-12-22T02:03:04.457Z,94.72
2018-12-22T02:05:35.109Z,94.70
2018-12-22T02:08:05.742Z,94.96
2018-12-22T02:10:36.456Z,95.03
2018-12-22T02:13:07.308Z,95.14
2018-12-22T02:15:37.972Z,95.74
2018-12-22T02:18:08.650Z,95.34
2018-12-22T02:20:39.331Z,95.50
2018-12-22T02:23:09.818Z,95.19
2018-12-22T02:25:40.270Z,95.62
2018-12-22T02:28:10.749Z,95.86
2018-12-22T02:30:41.446Z,95.72
2018-12-22T02:33:12.252Z,96.09
2018-12-22T02:35:42.776Z,95.43
2018-12-22T02:38:13.591Z,96.10
2018-12-22T02:40:44.178Z,95.64
2018-12-22T02:43:14.730Z,96.01
2018-12-22T02:45:45.544Z,95.20
2018-12-22T02:48:16.439Z,95.23
2018-12-22T02:50:47.211Z,94.87
2018-12-22T02:53:17.897Z,94.72
2018-12-22T02:55:48.476Z,94.53
2018-12-22T02:58:19.057Z,94.54
2018-12-22T03:00:49.834Z,94.23
2018-12-22T03:03:20.425Z,93.72
2018-12-22T03:05:51.009Z,93.45
2018-12-22T03:08:22.469Z,93.43
2018-12-22T03:10:53.299Z,93.68
2018-12-22T03:13:23.968Z,93.43
2018-12-22T03:15:54.713Z,93.29
2018-12-22T03:18:25.203Z,93.58
2018-12-22T03:20:55.824Z,93.94
2018-12-22T03:23:26.303Z,93.76
2018-12-22T03:25:57.118Z,93.62
2018-12-22T03:28:27.794Z,93.92
2018-12-22T03:30:58.536Z,93.16
2018-12-22T03:33:29.242Z,93.40
2018-12-22T03:35:59.970Z,93.05
2018-12-22T03:38:30.618Z,93.08
2018-12-22T03:41:02.441Z,92.41
2018-12-22T03:43:33.012Z,92.73
2018-12-22T03:46:04.766Z,92.69
2018-12-22T03:48:35.859Z,93.07
2018-12-22T03:51:06.632Z,92.67
2018-12-22T03:53:37.254Z,93.18
2018-12-22T03:56:08.027Z,93.47
2018-12-22T03:58:38.591Z,93.22
2018-12-22T04:01:09.463Z,92.61
2018-12-22T04:03:39.979Z,93.00
2018-12-22T04:06:10.599Z,92.30
2018-12-22T04:08:41.165Z,92.76
2018-12-22T04:11:11.722Z,92.07
2018-12-22T04:13:42.264Z,92.34
2018-12-22T04:16:12.748Z,92.62
2018-12-22T04:18:43.350Z,92.82
2018-12-22T04:21:14.021Z,93.29
2018-12-22T04:23:44.760Z,93.47
2018-12-22T04:26:15.380Z,93.04
2018-12-22T04:28:46.013Z,93.31
2018-12-22T04:31:16.664Z,93.25
2018-12-22T04:33:47.252Z,93.25
2018-12-22T04:36:17.728Z,93.35
2018-12-22T04:38:48.286Z,93.22
2018-12-22T04:41:19.168Z,93.72
2018-12-22T04:43:49.648Z,93.35
2018-12-22T04:46:20.355Z,93.39
2018-12-22T04:48:51.100Z,93.24
2018-12-22T04:51:21.797Z,93.00
2018-12-22T04:53:52.407Z,92.95
2018-12-22T04:56:23.294Z,93.31
2018-12-22T04:58:53.750Z,93.56
2018-12-22T05:01:24.430Z,93.27
2018-12-22T05:03:55.310Z,93.43
2018-12-22T05:06:26.025Z,93.72
2018-12-22T05:08:56.800Z,93.14
2018-12-22T05:11:27.571Z,93.34
2018-12-22T05:13:58.356Z,93.26
2018-12-22T05:16:29.068Z,92.35
2018-12-22T05:18:59.587Z,92.57
2018-12-22T05:21:30.173Z,92.35
2018-12-22T05:24:00.831Z,92.38
2018-12-22T05:26:31.471Z,91.78
2018-12-22T05:29:01.978Z,92.21
2018-12-22T05:31:32.703Z,92.15
2018-12-22T05:34:03.321Z,91.89
2018-12-22T05:36:34.103Z,92.48
2018-12-22T05:39:06.419Z,92.22
2018-12-22T05:41:37.014Z,91.68
2018-12-22T05:44:07.449Z,91.76
2018-12-22T05:46:38.175Z,91.83
2018-12-22T05:49:08.980Z,91.84
2018-12-22T05:51:39.521Z,91.29
2018-12-22T05:54:09.801Z,91.55
2018-12-22T05:56:40.597Z,91.53
2018-12-22T05:59:11.270Z,91.41
2018-12-22T06:01:41.943Z,91.78
2018-12-22T06:04:12.543Z,91.51
2018-12-22T06:06:43.110Z,91.24
2018-12-22T06:09:13.581Z,91.88
2018-12-22T06:11:44.118Z,91.49
2018-12-22T06:14:14.702Z,91.49
2018-12-22T06:16:45.363Z,91.10
2018-12-22T06:19:15.827Z,91.00
2018-12-22T06:21:46.381Z,91.89
2018-12-22T06:24:17.084Z,91.64
2018-12-22T06:26:47.859Z,91.29
2018-12-22T06:29:18.540Z,91.44
2018-12-22T06:31:49.418Z,91.91
2018-12-22T06:34:20.004Z,92.33
2018-12-22T06:36:50.375Z,92.72
2018-12-22T06:39:20.946Z,92.82
2018-12-22T06:41:51.555Z,93.08
2018-12-22T06:44:22.340Z,91.91
2018-12-22T06:46:53.051Z,92.18
2018-12-22T06:49:23.807Z,92.03
2018-12-22T06:51:54.607Z,91.75
2018-12-22T06:54:25.385Z,91.35
2018-12-22T06:56:56.478Z,90.91
2018-12-22T06:59:27.045Z,91.53
2018-12-22T07:01:57.410Z,90.85
2018-12-22T07:04:27.838Z,91.03
2018-12-22T07:06:58.107Z,91.29
2018-12-22T07:09:28.436Z,92.54
2018-12-22T07:11:58.756Z,91.75
2018-12-22T07:14:29.390Z,92.26
2018-12-22T07:16:59.887Z,92.05
2018-12-22T07:19:30.141Z,91.31
2018-12-22T07:22:00.829Z,90.62
2018-12-22T07:24:31.417Z,90.70
2018-12-22T07:27:02.152Z,90.02
2018-12-22T07:29:33.083Z,89.53
2018-12-22T07:32:03.749Z,89.13
2018-12-22T07:34:34.387Z,88.88
2018-12-22T07:37:05.509Z,87.77
2018-12-22T07:39:35.898Z,87.74
2018-12-22T07:42:06.566Z,87.34
2018-12-22T07:44:37.416Z,86.49
2018-12-22T07:47:07.735Z,87.33
2018-12-22T07:49:38.353Z,87.68
2018-12-22T07:52:09.003Z,87.71
2018-12-22T07:54:39.838Z,88.20
2018-12-22T07:57:10.474Z,88.82
2018-12-22T07:59:41.012Z,89.03
2018-12-22T08:02:11.747Z,89.10
2018-12-22T08:04:42.227Z,89.40
2018-12-22T08:07:12.763Z,88.97
2018-12-22T08:09:43.076Z,89.45
2018-12-22T08:12:13.485Z,90.25
2018-12-22T08:14:43.871Z,90.86
2018-12-22T08:17:14.438Z,90.48
2018-12-22T08:19:45.525Z,90.72
2018-12-22T08:22:16.316Z,90.87
2018-12-22T08:24:46.607Z,89.91
2018-12-22T08:27:17.235Z,89.57
2018-12-22T08:29:47.516Z,88.40
2018-12-22T08:32:17.803Z,87.29
2018-12-22T08:34:48.440Z,86.33
2018-12-22T08:37:18.947Z,86.32
2018-12-22T08:39:49.648Z,85.78
2018-12-22T08:42:26.615Z,85.04
2018-12-22T08:44:57.043Z,84.15
2018-12-22T08:47:27.693Z,84.61
2018-12-22T08:49:58.307Z,84.45
2018-12-22T08:52:28.931Z,83.36
2018-12-22T08:54:59.688Z,84.20
2018-12-22T08:57:30.031Z,84.20
2018-12-22T09:00:00.653Z,83.01
2018-12-22T09:02:31.458Z,83.39
2018-12-22T09:05:02.095Z,82.59
2018-12-22T09:07:32.647Z,82.92
2018-12-22T09:10:03.939Z,82.85
2018-12-22T09:12:34.713Z,82.72
2018-12-22T09:15:06.011Z,82.51
2018-12-22T09:17:36.841Z,84.13
2018-12-22T09:20:10.542Z,82.48
2018-12-22T09:22:40.866Z,81.50
2018-12-22T09:25:11.274Z,80.41
2018-12-22T09:27:41.707Z,78.72
2018-12-22T09:30:13.845Z,80.00
2018-12-22T09:32:44.624Z,81.39
2018-12-22T09:35:15.318Z,80.69
2018-12-22T09:37:45.712Z,80.45
2018-12-22T09:40:16.037Z,80.51
2018-12-22T09:42:46.591Z,79.73
2018-12-22T09:45:17.352Z,79.75
2018-12-22T09:47:48.132Z,79.44
2018-12-22T09:50:19.827Z,79.58
2018-12-22T09:52:50.600Z,79.55
2018-12-22T09:55:21.696Z,79.65
2018-12-22T09:57:52.572Z,79.77
2018-12-22T10:00:23.287Z,80.31
2018-12-22T10:02:54.022Z,79.38
2018-12-22T10:05:25.664Z,80.75
2018-12-22T10:07:56.346Z,79.18
2018-12-22T10:10:26.884Z,79.07
2018-12-22T10:12:57.652Z,77.63
2018-12-22T10:15:29.034Z,77.12
2018-12-22T10:17:59.904Z,75.49
2018-12-22T10:20:30.671Z,75.97
2018-12-22T10:23:01.373Z,76.81
2018-12-22T10:25:31.931Z,77.63
2018-12-22T10:28:02.817Z,78.79
2018-12-22T10:30:33.752Z,78.87
2018-12-22T10:33:04.945Z,77.79
2018-12-22T10:35:35.554Z,77.71
2018-12-22T10:38:06.290Z,78.29
2018-12-22T10:40:36.911Z,78.37
2018-12-22T10:43:07.727Z,78.20
2018-12-22T10:45:38.413Z,78.01
2018-12-22T10:48:09.185Z,78.65
2018-12-22T10:50:39.670Z,78.26
2018-12-22T10:53:10.647Z,78.71
2018-12-22T10:55:41.407Z,78.09
2018-12-22T10:58:11.758Z,78.22
2018-12-22T11:00:42.456Z,78.13
2018-12-22T11:03:13.055Z,77.40
2018-12-22T11:05:43.725Z,78.17
2018-12-22T11:08:14.533Z,77.34
2018-12-22T11:10:45.314Z,78.54
2018-12-22T11:13:15.990Z,77.61
2018-12-22T11:15:46.707Z,78.12
2018-12-22T11:18:17.382Z,78.74
2018-12-22T11:20:48.150Z,78.52
2018-12-22T11:23:20.515Z,79.00
2018-12-22T11:25:52.903Z,78.69
2018-12-22T11:28:23.708Z,78.13
2018-12-22T11:30:54.719Z,78.25
2018-12-22T11:33:25.363Z,77.39
2018-12-22T11:35:56.167Z,78.23
2018-12-22T11:38:26.719Z,77.82
2018-12-22T11:40:57.356Z,78.05
2018-12-22T11:43:28.088Z,78.09
2018-12-22T11:45:58.948Z,78.43
2018-12-22T11:49:38.625Z,77.41
2018-12-22T11:52:09.383Z,77.84
2018-12-22T11:54:39.906Z,77.40
2018-12-22T11:57:10.680Z,78.09
2018-12-22T11:59:41.162Z,77.83
2018-12-22T12:02:11.974Z,77.86
2018-12-22T12:04:42.723Z,76.59
2018-12-22T12:07:13.294Z,76.01
2018-12-22T12:09:43.904Z,75.97
2018-12-22T12:12:14.704Z,75.93
2018-12-22T12:14:45.493Z,76.27
2018-12-22T12:17:37.795Z,76.12
2018-12-22T12:20:08.583Z,75.15
2018-12-22T12:22:39.123Z,75.41
2018-12-22T12:25:09.650Z,74.28
2018-12-22T12:27:40.423Z,74.67
2018-12-22T12:30:11.357Z,74.49
2018-12-22T12:32:42.235Z,74.20
2018-12-22T12:35:12.756Z,75.20
2018-12-22T12:37:43.322Z,74.17
2018-12-22T12:40:14.123Z,73.79
2018-12-22T12:42:44.748Z,73.41
2018-12-22T12:45:15.552Z,74.47
2018-12-22T12:47:46.832Z,73.89
2018-12-22T12:50:19.413Z,73.95
2018-12-22T12:52:50.107Z,74.67
2018-12-22T12:55:20.997Z,75.21
2018-12-22T12:57:51.592Z,73.67
2018-12-22T13:00:22.574Z,73.36
2018-12-22T13:02:53.211Z,72.73
2018-12-22T13:05:23.880Z,72.54
2018-12-22T13:07:54.543Z,73.68
2018-12-22T13:10:25.303Z,73.36
2018-12-22T13:13:06.133Z,73.38
2018-12-22T13:15:36.820Z,73.28
2018-12-22T13:18:07.453Z,72.69
2018-12-22T13:20:38.177Z,73.47
2018-12-22T13:23:09.133Z,73.68
2018-12-22T13:25:39.943Z,74.44
2018-12-22T13:28:10.823Z,75.79
2018-12-22T13:30:41.753Z,75.72
2018-12-22T13:33:12.910Z,76.68
2018-12-22T13:35:43.799Z,76.64
2018-12-22T13:38:14.437Z,76.95
2018-12-22T13:40:45.234Z,76.87
2018-12-22T13:43:15.867Z,78.46
2018-12-22T13:45:46.519Z,78.86
2018-12-22T13:48:17.144Z,79.02
2018-12-22T13:50:48.622Z,78.90
2018-12-22T13:53:19.500Z,78.52
2018-12-22T13:55:50.308Z,78.15
2018-12-22T13:58:20.871Z,78.27
2018-12-22T14:00:51.991Z,78.70
2018-12-22T14:03:29.036Z,79.79
2018-12-22T14:05:59.907Z,80.05
2018-12-22T14:08:30.533Z,80.85
2018-12-22T14:11:01.337Z,80.24
2018-12-22T14:13:31.874Z,80.74
2018-12-22T14:16:14.348Z,80.70
2018-12-22T14:18:48.693Z,81.35
2018-12-22T14:21:19.374Z,81.27
2018-12-22T14:24:54.034Z,81.41
2018-12-22T14:27:24.645Z,81.36
2018-12-22T14:29:55.219Z,82.03
2018-12-22T14:32:26.996Z,82.37
2018-12-22T14:35:09.442Z,82.05
2018-12-22T14:37:40.105Z,82.63
2018-12-22T14:40:11.364Z,82.83
2018-12-22T14:42:41.857Z,82.75
2018-12-22T14:45:13.325Z,83.21
2018-12-22T14:47:43.924Z,83.48
2018-12-22T14:50:14.255Z,84.41
2018-12-22T14:52:44.623Z,83.67
2018-12-22T14:55:15.529Z,83.10
2018-12-22T14:57:50.563Z,83.35
2018-12-22T15:00:20.876Z,83.26
2018-12-22T15:02:51.538Z,83.28
2018-12-22T15:05:21.986Z,83.57
2018-12-22T15:07:52.252Z,83.96
2018-12-22T15:10:22.739Z,82.37
2018-12-22T15:12:53.600Z,82.41
2018-12-22T15:15:23.936Z,83.20
2018-12-22T15:17:54.819Z,83.18
2018-12-22T15:20:26.983Z,83.64
2018-12-22T15:22:57.755Z,83.66
2018-12-22T15:25:28.600Z,83.13
2018-12-22T15:27:59.398Z,83.13
2018-12-22T15:30:29.990Z,83.65
2018-12-22T15:33:00.519Z,84.01
2018-12-22T15:35:31.205Z,83.33
2018-12-22T15:38:01.860Z,83.29
2018-12-22T15:40:32.501Z,83.66
2018-12-22T15:43:03.133Z,82.81
2018-12-22T15:45:33.682Z,82.61
2018-12-22T15:48:04.492Z,83.95
2018-12-22T15:50:37.172Z,84.62
2018-12-22T15:53:08.004Z,84.35
2018-12-22T15:55:38.786Z,84.08
2018-12-22T15:58:10.559Z,83.63
2018-12-22T16:00:41.349Z,83.61
2018-12-22T16:03:12.114Z,83.50
2018-12-22T16:05:42.693Z,83.35
2018-12-22T16:08:13.595Z,83.73
2018-12-22T16:10:44.235Z,83.30
2018-12-22T16:13:14.942Z,83.35
2018-12-22T16:15:45.567Z,83.61
2018-12-22T16:18:16.392Z,84.26
2018-12-22T16:20:47.131Z,83.27
2018-12-22T16:23:17.899Z,83.49
2018-12-22T16:25:48.493Z,83.65
2018-12-22T16:28:23.622Z,83.59
2018-12-22T16:30:57.264Z,83.48
2018-12-22T16:33:28.239Z,83.22
2018-12-22T16:35:58.991Z,82.77
2018-12-22T16:38:29.675Z,83.05
2018-12-22T16:41:00.264Z,82.09
2018-12-22T16:43:31.171Z,82.88
2018-12-22T16:46:01.864Z,82.00
2018-12-22T16:48:32.812Z,82.66
2018-12-22T16:51:03.519Z,82.90
2018-12-22T16:53:34.162Z,82.29
2018-12-22T16:56:05.037Z,82.32
2018-12-22T16:58:37.515Z,82.91
2018-12-22T17:01:25.018Z,83.51
2018-12-22T17:03:55.608Z,82.85
2018-12-22T17:06:26.294Z,82.83
2018-12-22T17:08:56.927Z,82.27
2018-12-22T17:11:27.511Z,82.64
2018-12-22T17:13:58.260Z,82.57
2018-12-22T17:16:28.899Z,82.22
2018-12-22T17:18:59.505Z,81.76
2018-12-22T17:21:44.995Z,82.11
2018-12-22T17:24:20.516Z,81.67
2018-12-22T17:26:50.965Z,83.46
2018-12-22T17:29:21.490Z,83.36
2018-12-22T17:31:52.205Z,82.53
2018-12-22T17:34:22.895Z,82.77
2018-12-22T17:36:53.684Z,81.88
2018-12-22T17:39:24.185Z,82.15
2018-12-22T17:41:54.940Z,81.61
2018-12-22T17:44:25.617Z,81.03
2018-12-22T17:46:56.347Z,83.57
2018-12-22T17:49:26.979Z,82.91
2018-12-22T17:51:57.690Z,82.63
2018-12-22T17:54:28.428Z,82.08
2018-12-22T17:56:59.067Z,82.41
2018-12-22T17:59:29.716Z,82.29
2018-12-22T18:02:00.785Z,83.71
2018-12-22T18:04:31.434Z,83.30
2018-12-22T18:07:02.040Z,84.27
2018-12-22T18:09:32.955Z,83.32
2018-12-22T18:12:03.651Z,84.02
2018-12-22T18:14:34.427Z,83.71
2018-12-22T18:17:04.997Z,84.47
2018-12-22T18:19:35.898Z,84.69
2018-12-22T18:22:06.521Z,85.80
2018-12-22T18:24:37.236Z,85.61
2018-12-22T18:27:07.815Z,86.01
2018-12-22T18:29:38.694Z,85.22
2018-12-22T18:32:09.294Z,84.39
2018-12-22T18:34:39.867Z,84.83
2018-12-22T18:37:10.406Z,85.08
2018-12-22T18:39:41.232Z,85.25
2018-12-22T18:42:12.386Z,85.24
2018-12-22T18:44:43.343Z,84.62
2018-12-22T18:47:13.846Z,85.44
2018-12-22T18:49:44.480Z,84.96
2018-12-22T18:52:15.043Z,85.34
2018-12-22T18:54:45.487Z,85.27
2018-12-22T18:57:16.119Z,84.96
2018-12-22T18:59:46.597Z,84.49
2018-12-22T19:02:17.343Z,85.93
2018-12-22T19:04:47.826Z,85.49
2018-12-22T19:07:20.246Z,84.68
2018-12-22T19:09:51.976Z,84.45
2018-12-22T19:12:22.442Z,85.87
2018-12-22T19:14:55.736Z,84.68
2018-12-22T19:17:26.290Z,85.71
2018-12-22T19:19:57.012Z,85.58
2018-12-22T19:22:27.777Z,85.63
2018-12-22T19:24:58.312Z,85.68
2018-12-22T19:27:29.056Z,84.67
2018-12-22T19:29:59.714Z,84.94
2018-12-22T19:32:30.402Z,85.07
2018-12-22T19:35:00.858Z,86.25
2018-12-22T19:37:31.723Z,85.62
2018-12-22T19:40:02.348Z,86.32
2018-12-22T19:42:32.642Z,85.75
2018-12-22T19:45:03.080Z,86.19
2018-12-22T19:47:33.591Z,84.99
2018-12-22T19:50:04.121Z,86.63
2018-12-22T19:52:34.799Z,86.63
2018-12-22T19:55:05.622Z,86.10
2018-12-22T19:57:36.239Z,86.86
2018-12-22T20:00:07.633Z,86.62
2018-12-22T20:02:38.402Z,86.96
2018-12-22T20:05:09.580Z,87.38
2018-12-22T20:07:40.262Z,87.43
2018-12-22T20:10:11.004Z,87.97
2018-12-22T20:12:41.780Z,87.60
2018-12-22T20:15:12.291Z,86.67
2018-12-22T20:17:42.767Z,86.87
2018-12-22T20:20:13.463Z,85.29
2018-12-22T20:22:43.848Z,85.27
2018-12-22T20:25:14.375Z,85.95
2018-12-22T20:27:44.852Z,85.45
2018-12-22T20:30:15.262Z,84.84
2018-12-22T20:32:45.859Z,84.39
2018-12-22T20:35:16.275Z,83.89
2018-12-22T20:37:47.059Z,84.15
2018-12-22T20:40:17.568Z,83.64
2018-12-22T20:42:48.147Z,83.19
2018-12-22T20:45:18.647Z,82.91
2018-12-22T20:47:49.328Z,83.20
2018-12-22T20:50:20.212Z,83.16
2018-12-22T20:52:51.004Z,82.10
2018-12-22T20:55:21.894Z,83.15
2018-12-22T20:57:52.550Z,83.01
2018-12-22T21:00:23.386Z,84.59
2018-12-22T21:02:54.035Z,84.94
2018-12-22T21:05:26.818Z,84.37
2018-12-22T21:07:57.512Z,84.53
2018-12-22T21:10:27.978Z,85.05
2018-12-22T21:12:59.007Z,84.92
2018-12-22T21:15:30.022Z,85.09
2018-12-22T21:18:00.710Z,85.42
2018-12-22T21:20:31.447Z,85.12
2018-12-22T21:23:02.284Z,85.40
2018-12-22T21:25:33.020Z,85.71
2018-12-22T21:28:04.718Z,85.77
2018-12-22T21:30:35.555Z,86.72
2018-12-22T21:33:06.515Z,86.08
2018-12-22T21:35:37.356Z,86.22
2018-12-22T21:38:08.216Z,85.79
2018-12-22T21:40:39.032Z,85.73
2018-12-22T21:43:09.784Z,85.17
2018-12-22T21:45:40.417Z,85.09
2018-12-22T21:48:11.190Z,85.27
2018-12-22T21:50:42.091Z,84.83
2018-12-22T21:53:13.051Z,84.53
2018-12-22T21:55:43.600Z,84.30
2018-12-22T21:58:14.538Z,84.10
2018-12-22T22:00:45.591Z,84.16
2018-12-22T22:03:16.174Z,83.14
2018-12-22T22:05:46.871Z,82.79
2018-12-22T22:08:18.040Z,83.06
2018-12-22T22:10:48.933Z,82.82
2018-12-22T22:13:21.156Z,82.33
2018-12-22T22:15:52.034Z,81.32
2018-12-22T22:18:22.631Z,81.29
2018-12-22T22:20:53.270Z,80.45
2018-12-22T22:23:23.865Z,80.69
2018-12-22T22:25:54.670Z,80.90
2018-12-22T22:28:25.459Z,80.41
2018-12-22T22:30:56.361Z,79.93
2018-12-22T22:33:27.085Z,80.29
2018-12-22T22:35:57.928Z,80.80
2018-12-22T22:38:28.591Z,81.20
2018-12-22T22:40:59.284Z,81.81
2018-12-22T22:43:30.139Z,81.32
2018-12-22T22:46:01.171Z,82.41
2018-12-22T22:48:31.877Z,82.10
2018-12-22T22:51:02.651Z,82.85
2018-12-22T22:53:33.340Z,82.95
2018-12-22T22:56:03.965Z,83.82
2018-12-22T22:58:34.779Z,83.78
2018-12-22T23:01:05.691Z,83.66
2018-12-22T23:03:36.951Z,84.40
2018-12-22T23:06:07.888Z,83.74
2018-12-22T23:08:38.579Z,85.06
2018-12-22T23:11:09.442Z,84.95
2018-12-22T23:13:40.170Z,85.10
2018-12-22T23:16:10.755Z,84.82
2018-12-22T23:18:41.488Z,84.50
2018-12-22T23:21:12.463Z,85.02
2018-12-22T23:23:43.267Z,84.58
2018-12-22T23:26:13.938Z,85.07
2018-12-22T23:28:44.695Z,85.15
2018-12-22T23:31:15.406Z,84.53
2018-12-22T23:33:46.149Z,84.90
2018-12-22T23:36:16.781Z,85.28
2018-12-22T23:38:47.393Z,84.66
2018-12-22T23:41:18.014Z,84.40
2018-12-22T23:43:48.506Z,85.00
2018-12-22T23:46:19.188Z,84.46
2018-12-22T23:48:50.065Z,84.68
2018-12-22T23:51:20.662Z,84.99
2018-12-22T23:53:51.336Z,84.60
2018-12-22T23:56:22.098Z,84.14
2018-12-22T23:58:52.792Z,84.15
